sensor_id;sensor_type;location;lat;lon;timestamp;pressure;altitude;pressure_sealevel;temperature
22322;BMP180;11328;53.928;18.522;2023-07-29T00:00:17;99579.00;;;16.20
22322;BMP180;11328;53.928;18.522;2023-07-29T00:02:44;99575.00;;;16.30
22322;BMP180;11328;53.928;18.522;2023-07-29T00:05:12;99576.00;;;16.20
22322;BMP180;11328;53.928;18.522;2023-07-29T00:07:39;99584.00;;;16.20
22322;BMP180;11328;53.928;18.522;2023-07-29T00:10:07;99571.00;;;16.10
22322;BMP180;11328;53.928;18.522;2023-07-29T00:12:34;99577.00;;;16.20
22322;BMP180;11328;53.928;18.522;2023-07-29T00:15:01;99574.00;;;16.20
22322;BMP180;11328;53.928;18.522;2023-07-29T00:17:29;99579.00;;;16.20
22322;BMP180;11328;53.928;18.522;2023-07-29T00:19:56;99577.00;;;16.20
22322;BMP180;11328;53.928;18.522;2023-07-29T00:22:23;99581.00;;;16.30
22322;BMP180;11328;53.928;18.522;2023-07-29T00:24:54;99571.00;;;16.40
22322;BMP180;11328;53.928;18.522;2023-07-29T00:27:22;99591.00;;;16.40
22322;BMP180;11328;53.928;18.522;2023-07-29T00:29:49;99580.00;;;16.30
22322;BMP180;11328;53.928;18.522;2023-07-29T00:32:17;99586.00;;;16.30
22322;BMP180;11328;53.928;18.522;2023-07-29T00:34:44;99587.00;;;16.30
22322;BMP180;11328;53.928;18.522;2023-07-29T00:37:11;99576.00;;;16.30
22322;BMP180;11328;53.928;18.522;2023-07-29T00:39:39;99564.00;;;16.30
22322;BMP180;11328;53.928;18.522;2023-07-29T00:42:07;99578.00;;;16.20
22322;BMP180;11328;53.928;18.522;2023-07-29T00:44:34;99581.00;;;16.10
22322;BMP180;11328;53.928;18.522;2023-07-29T00:47:05;99585.00;;;16.20
22322;BMP180;11328;53.928;18.522;2023-07-29T00:49:32;99581.00;;;16.30
22322;BMP180;11328;53.928;18.522;2023-07-29T00:52:00;99584.00;;;16.30
22322;BMP180;11328;53.928;18.522;2023-07-29T00:54:28;99582.00;;;16.20
22322;BMP180;11328;53.928;18.522;2023-07-29T00:56:55;99579.00;;;16.20
22322;BMP180;11328;53.928;18.522;2023-07-29T00:59:22;99581.00;;;15.90
22322;BMP180;11328;53.928;18.522;2023-07-29T01:01:50;99579.00;;;16.20
22322;BMP180;11328;53.928;18.522;2023-07-29T01:04:18;99578.00;;;16.20
22322;BMP180;11328;53.928;18.522;2023-07-29T01:10:02;99581.00;;;16.10
22322;BMP180;11328;53.928;18.522;2023-07-29T01:12:44;99528.00;;;16.10
22322;BMP180;11328;53.928;18.522;2023-07-29T01:16:14;99583.00;;;16.00
22322;BMP180;11328;53.928;18.522;2023-07-29T01:18:30;99587.00;;;16.00
22322;BMP180;11328;53.928;18.522;2023-07-29T01:21:05;99577.00;;;16.00
22322;BMP180;11328;53.928;18.522;2023-07-29T01:23:35;99573.00;;;15.90
22322;BMP180;11328;53.928;18.522;2023-07-29T01:26:03;99581.00;;;15.80
22322;BMP180;11328;53.928;18.522;2023-07-29T01:28:31;99587.00;;;15.80
22322;BMP180;11328;53.928;18.522;2023-07-29T01:31:35;99588.00;;;15.90
22322;BMP180;11328;53.928;18.522;2023-07-29T01:37:19;99539.00;;;15.70
22322;BMP180;11328;53.928;18.522;2023-07-29T01:39:51;99594.00;;;15.50
22322;BMP180;11328;53.928;18.522;2023-07-29T01:42:22;99594.00;;;15.50
22322;BMP180;11328;53.928;18.522;2023-07-29T01:44:49;99589.00;;;15.50
22322;BMP180;11328;53.928;18.522;2023-07-29T01:47:17;99592.00;;;15.60
22322;BMP180;11328;53.928;18.522;2023-07-29T01:49:44;99596.00;;;15.60
22322;BMP180;11328;53.928;18.522;2023-07-29T01:52:11;99587.00;;;15.50
22322;BMP180;11328;53.928;18.522;2023-07-29T01:54:38;99590.00;;;15.50
22322;BMP180;11328;53.928;18.522;2023-07-29T01:57:06;99587.00;;;15.40
22322;BMP180;11328;53.928;18.522;2023-07-29T01:59:33;99599.00;;;15.50
22322;BMP180;11328;53.928;18.522;2023-07-29T02:02:00;99604.00;;;15.40
22322;BMP180;11328;53.928;18.522;2023-07-29T02:04:28;99603.00;;;15.40
22322;BMP180;11328;53.928;18.522;2023-07-29T02:06:55;99599.00;;;15.40
22322;BMP180;11328;53.928;18.522;2023-07-29T02:09:22;99587.00;;;15.40
22322;BMP180;11328;53.928;18.522;2023-07-29T02:11:50;99600.00;;;15.50
22322;BMP180;11328;53.928;18.522;2023-07-29T02:14:17;99604.00;;;15.40
22322;BMP180;11328;53.928;18.522;2023-07-29T02:16:44;99596.00;;;15.40
22322;BMP180;11328;53.928;18.522;2023-07-29T02:19:11;99594.00;;;15.30
22322;BMP180;11328;53.928;18.522;2023-07-29T02:21:38;99583.00;;;15.30
22322;BMP180;11328;53.928;18.522;2023-07-29T02:24:05;99612.00;;;15.30
22322;BMP180;11328;53.928;18.522;2023-07-29T02:26:33;99589.00;;;15.20
22322;BMP180;11328;53.928;18.522;2023-07-29T02:29:00;99602.00;;;15.30
22322;BMP180;11328;53.928;18.522;2023-07-29T02:31:27;99601.00;;;15.30
22322;BMP180;11328;53.928;18.522;2023-07-29T02:33:54;99604.00;;;15.30
22322;BMP180;11328;53.928;18.522;2023-07-29T02:36:22;99614.00;;;15.30
22322;BMP180;11328;53.928;18.522;2023-07-29T02:38:50;99623.00;;;15.30
22322;BMP180;11328;53.928;18.522;2023-07-29T02:41:17;99614.00;;;15.30
22322;BMP180;11328;53.928;18.522;2023-07-29T02:43:49;99612.00;;;15.30
22322;BMP180;11328;53.928;18.522;2023-07-29T02:46:17;99613.00;;;15.30
22322;BMP180;11328;53.928;18.522;2023-07-29T02:48:44;99616.00;;;15.20
22322;BMP180;11328;53.928;18.522;2023-07-29T02:51:12;99613.00;;;15.10
22322;BMP180;11328;53.928;18.522;2023-07-29T02:53:39;99610.00;;;15.10
22322;BMP180;11328;53.928;18.522;2023-07-29T02:56:07;99599.00;;;15.10
22322;BMP180;11328;53.928;18.522;2023-07-29T02:58:37;99608.00;;;15.10
22322;BMP180;11328;53.928;18.522;2023-07-29T03:01:05;99611.00;;;15.10
22322;BMP180;11328;53.928;18.522;2023-07-29T03:03:33;99617.00;;;15.00
22322;BMP180;11328;53.928;18.522;2023-07-29T03:06:09;99613.00;;;15.10
22322;BMP180;11328;53.928;18.522;2023-07-29T03:08:37;99624.00;;;15.10
22322;BMP180;11328;53.928;18.522;2023-07-29T03:11:13;99624.00;;;15.10
22322;BMP180;11328;53.928;18.522;2023-07-29T03:13:40;99632.00;;;15.10
22322;BMP180;11328;53.928;18.522;2023-07-29T03:16:14;99630.00;;;15.00
22322;BMP180;11328;53.928;18.522;2023-07-29T03:18:42;99633.00;;;15.10
22322;BMP180;11328;53.928;18.522;2023-07-29T03:21:11;99630.00;;;15.10
22322;BMP180;11328;53.928;18.522;2023-07-29T03:23:38;99631.00;;;15.10
22322;BMP180;11328;53.928;18.522;2023-07-29T03:26:07;99629.00;;;15.20
22322;BMP180;11328;53.928;18.522;2023-07-29T03:28:42;99628.00;;;15.10
22322;BMP180;11328;53.928;18.522;2023-07-29T03:31:11;99619.00;;;15.00
22322;BMP180;11328;53.928;18.522;2023-07-29T03:33:40;99641.00;;;15.00
22322;BMP180;11328;53.928;18.522;2023-07-29T03:36:07;99642.00;;;15.00
22322;BMP180;11328;53.928;18.522;2023-07-29T03:38:34;99638.00;;;15.00
22322;BMP180;11328;53.928;18.522;2023-07-29T03:41:02;99624.00;;;15.00
22322;BMP180;11328;53.928;18.522;2023-07-29T03:43:31;99622.00;;;15.00
22322;BMP180;11328;53.928;18.522;2023-07-29T03:45:58;99637.00;;;15.10
22322;BMP180;11328;53.928;18.522;2023-07-29T03:48:25;99631.00;;;15.30
22322;BMP180;11328;53.928;18.522;2023-07-29T03:50:53;99640.00;;;15.30
22322;BMP180;11328;53.928;18.522;2023-07-29T03:53:21;99645.00;;;15.30
22322;BMP180;11328;53.928;18.522;2023-07-29T03:55:48;99649.00;;;15.40
22322;BMP180;11328;53.928;18.522;2023-07-29T03:58:17;99647.00;;;15.50
22322;BMP180;11328;53.928;18.522;2023-07-29T04:00:44;99647.00;;;15.50
22322;BMP180;11328;53.928;18.522;2023-07-29T04:03:11;99650.00;;;15.50
22322;BMP180;11328;53.928;18.522;2023-07-29T04:05:38;99647.00;;;15.50
22322;BMP180;11328;53.928;18.522;2023-07-29T04:08:05;99633.00;;;15.50
22322;BMP180;11328;53.928;18.522;2023-07-29T04:10:32;99647.00;;;15.60
22322;BMP180;11328;53.928;18.522;2023-07-29T04:13:02;99647.00;;;15.70
22322;BMP180;11328;53.928;18.522;2023-07-29T04:15:29;99647.00;;;15.80
22322;BMP180;11328;53.928;18.522;2023-07-29T04:17:57;99651.00;;;15.90
22322;BMP180;11328;53.928;18.522;2023-07-29T04:20:24;99647.00;;;15.90
22322;BMP180;11328;53.928;18.522;2023-07-29T04:22:51;99646.00;;;16.00
22322;BMP180;11328;53.928;18.522;2023-07-29T04:25:19;99654.00;;;16.10
22322;BMP180;11328;53.928;18.522;2023-07-29T04:27:46;99643.00;;;16.30
22322;BMP180;11328;53.928;18.522;2023-07-29T04:30:13;99647.00;;;16.30
22322;BMP180;11328;53.928;18.522;2023-07-29T04:32:40;99649.00;;;16.40
22322;BMP180;11328;53.928;18.522;2023-07-29T04:35:09;99643.00;;;16.50
22322;BMP180;11328;53.928;18.522;2023-07-29T04:37:36;99649.00;;;16.70
22322;BMP180;11328;53.928;18.522;2023-07-29T04:40:04;99651.00;;;16.70
22322;BMP180;11328;53.928;18.522;2023-07-29T04:42:32;99647.00;;;16.90
22322;BMP180;11328;53.928;18.522;2023-07-29T04:44:59;99643.00;;;17.00
22322;BMP180;11328;53.928;18.522;2023-07-29T04:47:27;99611.00;;;17.10
22322;BMP180;11328;53.928;18.522;2023-07-29T04:49:54;99640.00;;;17.20
22322;BMP180;11328;53.928;18.522;2023-07-29T04:52:21;99648.00;;;17.30
22322;BMP180;11328;53.928;18.522;2023-07-29T04:54:48;99649.00;;;17.40
22322;BMP180;11328;53.928;18.522;2023-07-29T04:57:16;99651.00;;;17.40
22322;BMP180;11328;53.928;18.522;2023-07-29T04:59:44;99652.00;;;17.50
22322;BMP180;11328;53.928;18.522;2023-07-29T05:02:11;99651.00;;;17.50
22322;BMP180;11328;53.928;18.522;2023-07-29T05:04:38;99659.00;;;17.50
22322;BMP180;11328;53.928;18.522;2023-07-29T05:07:06;99659.00;;;17.60
22322;BMP180;11328;53.928;18.522;2023-07-29T05:09:33;99657.00;;;17.70
22322;BMP180;11328;53.928;18.522;2023-07-29T05:12:01;99658.00;;;17.70
22322;BMP180;11328;53.928;18.522;2023-07-29T05:14:28;99665.00;;;17.90
22322;BMP180;11328;53.928;18.522;2023-07-29T05:16:56;99673.00;;;18.00
22322;BMP180;11328;53.928;18.522;2023-07-29T05:19:23;99661.00;;;18.10
22322;BMP180;11328;53.928;18.522;2023-07-29T05:21:50;99667.00;;;18.30
22322;BMP180;11328;53.928;18.522;2023-07-29T05:24:18;99668.00;;;18.50
22322;BMP180;11328;53.928;18.522;2023-07-29T05:26:45;99663.00;;;18.80
22322;BMP180;11328;53.928;18.522;2023-07-29T05:29:12;99661.00;;;18.90
22322;BMP180;11328;53.928;18.522;2023-07-29T05:31:39;99661.00;;;19.20
22322;BMP180;11328;53.928;18.522;2023-07-29T05:34:07;99669.00;;;19.30
22322;BMP180;11328;53.928;18.522;2023-07-29T05:36:34;99675.00;;;19.50
22322;BMP180;11328;53.928;18.522;2023-07-29T05:39:02;99683.00;;;19.70
22322;BMP180;11328;53.928;18.522;2023-07-29T05:41:30;99687.00;;;19.90
22322;BMP180;11328;53.928;18.522;2023-07-29T05:43:57;99688.00;;;20.10
22322;BMP180;11328;53.928;18.522;2023-07-29T05:46:25;99679.00;;;20.30
22322;BMP180;11328;53.928;18.522;2023-07-29T05:48:52;99693.00;;;20.40
22322;BMP180;11328;53.928;18.522;2023-07-29T05:51:20;99677.00;;;20.60
22322;BMP180;11328;53.928;18.522;2023-07-29T05:53:47;99687.00;;;20.80
22322;BMP180;11328;53.928;18.522;2023-07-29T05:56:14;99687.00;;;20.80
22322;BMP180;11328;53.928;18.522;2023-07-29T05:58:42;99693.00;;;20.90
22322;BMP180;11328;53.928;18.522;2023-07-29T06:01:09;99699.00;;;21.20
22322;BMP180;11328;53.928;18.522;2023-07-29T06:03:36;99704.00;;;21.40
22322;BMP180;11328;53.928;18.522;2023-07-29T06:06:04;99704.00;;;21.60
22322;BMP180;11328;53.928;18.522;2023-07-29T06:08:32;99714.00;;;21.70
22322;BMP180;11328;53.928;18.522;2023-07-29T06:11:01;99706.00;;;21.70
22322;BMP180;11328;53.928;18.522;2023-07-29T06:13:28;99705.00;;;21.90
22322;BMP180;11328;53.928;18.522;2023-07-29T06:15:56;99711.00;;;22.20
22322;BMP180;11328;53.928;18.522;2023-07-29T06:18:24;99717.00;;;22.10
22322;BMP180;11328;53.928;18.522;2023-07-29T06:20:52;99713.00;;;22.20
22322;BMP180;11328;53.928;18.522;2023-07-29T06:23:19;99715.00;;;22.30
22322;BMP180;11328;53.928;18.522;2023-07-29T06:25:46;99718.00;;;22.30
22322;BMP180;11328;53.928;18.522;2023-07-29T06:28:13;99726.00;;;22.40
22322;BMP180;11328;53.928;18.522;2023-07-29T06:30:40;99719.00;;;22.60
22322;BMP180;11328;53.928;18.522;2023-07-29T06:33:08;99729.00;;;22.80
22322;BMP180;11328;53.928;18.522;2023-07-29T06:35:36;99714.00;;;23.00
22322;BMP180;11328;53.928;18.522;2023-07-29T06:38:03;99729.00;;;23.20
22322;BMP180;11328;53.928;18.522;2023-07-29T06:40:30;99726.00;;;23.40
22322;BMP180;11328;53.928;18.522;2023-07-29T06:42:58;99717.00;;;23.50
22322;BMP180;11328;53.928;18.522;2023-07-29T06:45:25;99718.00;;;23.40
22322;BMP180;11328;53.928;18.522;2023-07-29T06:47:53;99719.00;;;23.50
22322;BMP180;11328;53.928;18.522;2023-07-29T06:50:21;99721.00;;;24.00
22322;BMP180;11328;53.928;18.522;2023-07-29T06:52:48;99708.00;;;24.20
22322;BMP180;11328;53.928;18.522;2023-07-29T06:55:15;99708.00;;;24.70
22322;BMP180;11328;53.928;18.522;2023-07-29T06:57:43;99704.00;;;25.20
22322;BMP180;11328;53.928;18.522;2023-07-29T07:00:10;99699.00;;;25.80
22322;BMP180;11328;53.928;18.522;2023-07-29T07:02:37;99689.00;;;26.40
22322;BMP180;11328;53.928;18.522;2023-07-29T07:05:05;99711.00;;;26.80
22322;BMP180;11328;53.928;18.522;2023-07-29T07:07:32;99696.00;;;26.70
22322;BMP180;11328;53.928;18.522;2023-07-29T07:09:59;99702.00;;;27.00
22322;BMP180;11328;53.928;18.522;2023-07-29T07:12:27;99698.00;;;27.30
22322;BMP180;11328;53.928;18.522;2023-07-29T07:14:54;99693.00;;;27.40
22322;BMP180;11328;53.928;18.522;2023-07-29T07:17:21;99695.00;;;27.50
22322;BMP180;11328;53.928;18.522;2023-07-29T07:19:49;99704.00;;;27.80
22322;BMP180;11328;53.928;18.522;2023-07-29T07:22:16;99700.00;;;28.20
22322;BMP180;11328;53.928;18.522;2023-07-29T07:24:44;99696.00;;;28.30
22322;BMP180;11328;53.928;18.522;2023-07-29T07:27:11;99699.00;;;27.80
22322;BMP180;11328;53.928;18.522;2023-07-29T07:29:39;99698.00;;;27.70
22322;BMP180;11328;53.928;18.522;2023-07-29T07:32:07;99699.00;;;27.60
22322;BMP180;11328;53.928;18.522;2023-07-29T07:34:34;99702.00;;;27.50
22322;BMP180;11328;53.928;18.522;2023-07-29T07:37:02;99705.00;;;27.60
22322;BMP180;11328;53.928;18.522;2023-07-29T07:39:31;99699.00;;;27.50
22322;BMP180;11328;53.928;18.522;2023-07-29T07:41:59;99702.00;;;27.30
22322;BMP180;11328;53.928;18.522;2023-07-29T07:44:27;99703.00;;;27.60
22322;BMP180;11328;53.928;18.522;2023-07-29T07:46:54;99714.00;;;27.70
22322;BMP180;11328;53.928;18.522;2023-07-29T07:49:22;99706.00;;;27.90
22322;BMP180;11328;53.928;18.522;2023-07-29T07:51:50;99605.00;;;28.10
22322;BMP180;11328;53.928;18.522;2023-07-29T07:54:17;99711.00;;;28.30
22322;BMP180;11328;53.928;18.522;2023-07-29T07:56:45;99699.00;;;28.50
22322;BMP180;11328;53.928;18.522;2023-07-29T07:59:12;99699.00;;;28.20
22322;BMP180;11328;53.928;18.522;2023-07-29T08:01:42;99708.00;;;27.70
22322;BMP180;11328;53.928;18.522;2023-07-29T08:04:09;99706.00;;;27.90
22322;BMP180;11328;53.928;18.522;2023-07-29T08:06:38;99698.00;;;28.30
22322;BMP180;11328;53.928;18.522;2023-07-29T08:09:06;99699.00;;;28.50
22322;BMP180;11328;53.928;18.522;2023-07-29T08:11:33;99680.00;;;28.70
22322;BMP180;11328;53.928;18.522;2023-07-29T08:14:02;99683.00;;;28.80
22322;BMP180;11328;53.928;18.522;2023-07-29T08:16:29;99687.00;;;29.00
22322;BMP180;11328;53.928;18.522;2023-07-29T08:18:56;99679.00;;;28.90
22322;BMP180;11328;53.928;18.522;2023-07-29T08:21:24;99681.00;;;29.30
22322;BMP180;11328;53.928;18.522;2023-07-29T08:23:51;99684.00;;;29.60
22322;BMP180;11328;53.928;18.522;2023-07-29T08:26:18;99680.00;;;29.70
22322;BMP180;11328;53.928;18.522;2023-07-29T08:28:45;99681.00;;;29.60
22322;BMP180;11328;53.928;18.522;2023-07-29T08:31:13;99670.00;;;29.40
22322;BMP180;11328;53.928;18.522;2023-07-29T10:25:15;99656.00;;;29.60
22322;BMP180;11328;53.928;18.522;2023-07-29T10:28:05;99646.00;;;30.20
22322;BMP180;11328;53.928;18.522;2023-07-29T10:30:33;99638.00;;;30.50
22322;BMP180;11328;53.928;18.522;2023-07-29T10:33:05;99634.00;;;30.70
22322;BMP180;11328;53.928;18.522;2023-07-29T10:35:34;99644.00;;;30.80
22322;BMP180;11328;53.928;18.522;2023-07-29T10:38:03;99623.00;;;31.00
22322;BMP180;11328;53.928;18.522;2023-07-29T10:40:55;99636.00;;;31.00
22322;BMP180;11328;53.928;18.522;2023-07-29T10:45:57;99635.00;;;30.90
22322;BMP180;11328;53.928;18.522;2023-07-29T10:48:43;99638.00;;;31.20
22322;BMP180;11328;53.928;18.522;2023-07-29T10:51:31;99628.00;;;31.50
22322;BMP180;11328;53.928;18.522;2023-07-29T10:54:01;99623.00;;;31.40
22322;BMP180;11328;53.928;18.522;2023-07-29T10:56:37;99617.00;;;31.10
22322;BMP180;11328;53.928;18.522;2023-07-29T11:01:57;99640.00;;;29.60
22322;BMP180;11328;53.928;18.522;2023-07-29T11:04:27;99645.00;;;29.60
22322;BMP180;11328;53.928;18.522;2023-07-29T11:10:00;99643.00;;;29.60
22322;BMP180;11328;53.928;18.522;2023-07-29T11:12:50;99635.00;;;29.50
22322;BMP180;11328;53.928;18.522;2023-07-29T11:15:29;99631.00;;;29.90
22322;BMP180;11328;53.928;18.522;2023-07-29T11:17:59;99628.00;;;30.00
22322;BMP180;11328;53.928;18.522;2023-07-29T11:20:29;99614.00;;;30.30
22322;BMP180;11328;53.928;18.522;2023-07-29T11:22:59;99611.00;;;30.40
22322;BMP180;11328;53.928;18.522;2023-07-29T11:25:29;99606.00;;;30.40
22322;BMP180;11328;53.928;18.522;2023-07-29T11:27:58;99617.00;;;30.30
22322;BMP180;11328;53.928;18.522;2023-07-29T11:30:26;99606.00;;;30.50
22322;BMP180;11328;53.928;18.522;2023-07-29T11:32:54;99618.00;;;30.70
22322;BMP180;11328;53.928;18.522;2023-07-29T11:35:25;99627.00;;;30.40
22322;BMP180;11328;53.928;18.522;2023-07-29T11:37:54;99630.00;;;30.00
22322;BMP180;11328;53.928;18.522;2023-07-29T11:40:24;99623.00;;;30.30
22322;BMP180;11328;53.928;18.522;2023-07-29T11:42:52;99620.00;;;30.60
22322;BMP180;11328;53.928;18.522;2023-07-29T11:45:22;99609.00;;;30.70
22322;BMP180;11328;53.928;18.522;2023-07-29T11:47:55;99617.00;;;30.50
22322;BMP180;11328;53.928;18.522;2023-07-29T11:50:22;99609.00;;;30.40
22322;BMP180;11328;53.928;18.522;2023-07-29T11:52:49;99590.00;;;30.70
22322;BMP180;11328;53.928;18.522;2023-07-29T11:55:16;99600.00;;;30.90
22322;BMP180;11328;53.928;18.522;2023-07-29T11:57:43;99595.00;;;30.70
22322;BMP180;11328;53.928;18.522;2023-07-29T12:00:11;99597.00;;;30.80
22322;BMP180;11328;53.928;18.522;2023-07-29T12:02:42;99603.00;;;30.70
22322;BMP180;11328;53.928;18.522;2023-07-29T12:05:14;99599.00;;;30.70
22322;BMP180;11328;53.928;18.522;2023-07-29T12:07:44;99592.00;;;30.70
22322;BMP180;11328;53.928;18.522;2023-07-29T12:10:11;99592.00;;;30.90
22322;BMP180;11328;53.928;18.522;2023-07-29T12:12:46;99588.00;;;31.00
22322;BMP180;11328;53.928;18.522;2023-07-29T12:15:22;99589.00;;;30.90
22322;BMP180;11328;53.928;18.522;2023-07-29T12:17:54;99585.00;;;30.80
22322;BMP180;11328;53.928;18.522;2023-07-29T12:20:23;99573.00;;;30.70
22322;BMP180;11328;53.928;18.522;2023-07-29T12:22:59;99573.00;;;30.90
22322;BMP180;11328;53.928;18.522;2023-07-29T12:25:29;99565.00;;;31.30
22322;BMP180;11328;53.928;18.522;2023-07-29T12:28:02;99577.00;;;31.40
22322;BMP180;11328;53.928;18.522;2023-07-29T12:30:29;99567.00;;;31.30
22322;BMP180;11328;53.928;18.522;2023-07-29T12:32:56;99568.00;;;31.10
22322;BMP180;11328;53.928;18.522;2023-07-29T12:35:34;99551.00;;;30.90
22322;BMP180;11328;53.928;18.522;2023-07-29T12:38:01;99551.00;;;30.80
22322;BMP180;11328;53.928;18.522;2023-07-29T12:40:28;99553.00;;;31.00
22322;BMP180;11328;53.928;18.522;2023-07-29T12:42:56;99539.00;;;31.10
22322;BMP180;11328;53.928;18.522;2023-07-29T12:45:23;99549.00;;;31.00
22322;BMP180;11328;53.928;18.522;2023-07-29T12:47:53;99544.00;;;31.10
22322;BMP180;11328;53.928;18.522;2023-07-29T12:50:20;99547.00;;;30.90
22322;BMP180;11328;53.928;18.522;2023-07-29T12:52:48;99541.00;;;30.80
22322;BMP180;11328;53.928;18.522;2023-07-29T12:55:15;99528.00;;;30.80
22322;BMP180;11328;53.928;18.522;2023-07-29T12:57:45;99533.00;;;30.70
22322;BMP180;11328;53.928;18.522;2023-07-29T13:00:13;99532.00;;;30.70
22322;BMP180;11328;53.928;18.522;2023-07-29T13:02:40;99525.00;;;30.90
22322;BMP180;11328;53.928;18.522;2023-07-29T13:05:10;99523.00;;;31.10
22322;BMP180;11328;53.928;18.522;2023-07-29T13:07:42;99511.00;;;31.20
22322;BMP180;11328;53.928;18.522;2023-07-29T13:10:10;99524.00;;;31.30
22322;BMP180;11328;53.928;18.522;2023-07-29T13:12:38;99522.00;;;31.20
22322;BMP180;11328;53.928;18.522;2023-07-29T13:15:06;99516.00;;;31.20
22322;BMP180;11328;53.928;18.522;2023-07-29T13:17:34;99511.00;;;31.10
22322;BMP180;11328;53.928;18.522;2023-07-29T13:20:01;99515.00;;;31.00
22322;BMP180;11328;53.928;18.522;2023-07-29T13:22:29;99514.00;;;30.90
22322;BMP180;11328;53.928;18.522;2023-07-29T13:24:55;99509.00;;;31.10
22322;BMP180;11328;53.928;18.522;2023-07-29T13:27:23;99511.00;;;31.20
22322;BMP180;11328;53.928;18.522;2023-07-29T13:29:50;99508.00;;;31.00
22322;BMP180;11328;53.928;18.522;2023-07-29T13:32:17;99494.00;;;31.20
22322;BMP180;11328;53.928;18.522;2023-07-29T13:34:44;99489.00;;;31.40
22322;BMP180;11328;53.928;18.522;2023-07-29T13:37:11;99481.00;;;31.70
22322;BMP180;11328;53.928;18.522;2023-07-29T13:39:38;99486.00;;;31.90
22322;BMP180;11328;53.928;18.522;2023-07-29T13:42:06;99490.00;;;31.90
22322;BMP180;11328;53.928;18.522;2023-07-29T13:44:33;99477.00;;;31.90
22322;BMP180;11328;53.928;18.522;2023-07-29T13:46:59;99476.00;;;31.90
22322;BMP180;11328;53.928;18.522;2023-07-29T13:49:26;99468.00;;;31.90
22322;BMP180;11328;53.928;18.522;2023-07-29T13:51:53;99472.00;;;32.00
22322;BMP180;11328;53.928;18.522;2023-07-29T13:54:20;99468.00;;;32.10
22322;BMP180;11328;53.928;18.522;2023-07-29T13:56:51;99475.00;;;32.00
22322;BMP180;11328;53.928;18.522;2023-07-29T13:59:18;99456.00;;;32.00
22322;BMP180;11328;53.928;18.522;2023-07-29T14:01:45;99459.00;;;31.90
22322;BMP180;11328;53.928;18.522;2023-07-29T14:04:12;99459.00;;;32.00
22322;BMP180;11328;53.928;18.522;2023-07-29T14:06:39;99467.00;;;31.80
22322;BMP180;11328;53.928;18.522;2023-07-29T14:09:09;99455.00;;;31.90
22322;BMP180;11328;53.928;18.522;2023-07-29T14:11:35;99463.00;;;31.90
22322;BMP180;11328;53.928;18.522;2023-07-29T14:14:03;99485.00;;;32.00
22322;BMP180;11328;53.928;18.522;2023-07-29T14:16:30;99461.00;;;32.00
22322;BMP180;11328;53.928;18.522;2023-07-29T14:18:57;99464.00;;;31.80
22322;BMP180;11328;53.928;18.522;2023-07-29T14:21:23;99472.00;;;31.70
22322;BMP180;11328;53.928;18.522;2023-07-29T14:23:51;99466.00;;;31.80
22322;BMP180;11328;53.928;18.522;2023-07-29T14:26:18;99459.00;;;31.80
22322;BMP180;11328;53.928;18.522;2023-07-29T14:28:45;99459.00;;;31.70
22322;BMP180;11328;53.928;18.522;2023-07-29T14:31:12;99450.00;;;31.70
22322;BMP180;11328;53.928;18.522;2023-07-29T14:33:40;99440.00;;;31.70
22322;BMP180;11328;53.928;18.522;2023-07-29T14:36:07;99440.00;;;31.80
22322;BMP180;11328;53.928;18.522;2023-07-29T14:38:35;99438.00;;;31.70
22322;BMP180;11328;53.928;18.522;2023-07-29T14:41:03;99423.00;;;31.60
22322;BMP180;11328;53.928;18.522;2023-07-29T14:43:31;99431.00;;;31.60
22322;BMP180;11328;53.928;18.522;2023-07-29T14:45:58;99438.00;;;31.60
22322;BMP180;11328;53.928;18.522;2023-07-29T14:48:25;99423.00;;;31.70
22322;BMP180;11328;53.928;18.522;2023-07-29T14:50:52;99421.00;;;31.70
22322;BMP180;11328;53.928;18.522;2023-07-29T14:53:19;99412.00;;;31.60
22322;BMP180;11328;53.928;18.522;2023-07-29T14:55:46;99417.00;;;31.60
22322;BMP180;11328;53.928;18.522;2023-07-29T14:58:13;99414.00;;;31.50
22322;BMP180;11328;53.928;18.522;2023-07-29T15:00:40;99414.00;;;31.40
22322;BMP180;11328;53.928;18.522;2023-07-29T15:03:07;99413.00;;;31.40
22322;BMP180;11328;53.928;18.522;2023-07-29T15:05:34;99399.00;;;31.40
22322;BMP180;11328;53.928;18.522;2023-07-29T15:08:01;99380.00;;;31.40
22322;BMP180;11328;53.928;18.522;2023-07-29T15:10:28;99396.00;;;31.40
22322;BMP180;11328;53.928;18.522;2023-07-29T15:12:55;99394.00;;;31.50
22322;BMP180;11328;53.928;18.522;2023-07-29T15:15:22;99401.00;;;31.40
22322;BMP180;11328;53.928;18.522;2023-07-29T15:17:49;99408.00;;;31.30
22322;BMP180;11328;53.928;18.522;2023-07-29T15:20:16;99395.00;;;31.30
22322;BMP180;11328;53.928;18.522;2023-07-29T15:22:43;99403.00;;;31.30
22322;BMP180;11328;53.928;18.522;2023-07-29T15:25:10;99400.00;;;31.40
22322;BMP180;11328;53.928;18.522;2023-07-29T15:27:38;99396.00;;;31.40
22322;BMP180;11328;53.928;18.522;2023-07-29T15:30:08;99398.00;;;31.30
22322;BMP180;11328;53.928;18.522;2023-07-29T15:32:36;99396.00;;;31.30
22322;BMP180;11328;53.928;18.522;2023-07-29T15:35:03;99398.00;;;31.30
22322;BMP180;11328;53.928;18.522;2023-07-29T15:37:30;99399.00;;;31.20
22322;BMP180;11328;53.928;18.522;2023-07-29T15:39:57;99382.00;;;31.10
22322;BMP180;11328;53.928;18.522;2023-07-29T15:42:24;99367.00;;;31.10
22322;BMP180;11328;53.928;18.522;2023-07-29T15:44:51;99332.00;;;31.10
22322;BMP180;11328;53.928;18.522;2023-07-29T15:47:18;99388.00;;;31.00
22322;BMP180;11328;53.928;18.522;2023-07-29T15:49:45;99374.00;;;31.00
22322;BMP180;11328;53.928;18.522;2023-07-29T15:52:13;99374.00;;;30.90
22322;BMP180;11328;53.928;18.522;2023-07-29T15:54:43;99347.00;;;30.50
22322;BMP180;11328;53.928;18.522;2023-07-29T15:57:13;99355.00;;;30.70
22322;BMP180;11328;53.928;18.522;2023-07-29T15:59:40;99341.00;;;30.70
22322;BMP180;11328;53.928;18.522;2023-07-29T16:02:07;99353.00;;;30.60
22322;BMP180;11328;53.928;18.522;2023-07-29T16:04:35;99348.00;;;30.60
22322;BMP180;11328;53.928;18.522;2023-07-29T16:07:02;99350.00;;;30.60
22322;BMP180;11328;53.928;18.522;2023-07-29T16:09:29;99347.00;;;30.60